METAR Data
IDs: Format: Raw Decoded Include TAF

Data at: 1613 UTC 16 Feb 2019

METAR for:KCVG (Cincinnati Intl, KY, US)
Text:KCVG 161552Z 03011KT 10SM FEW018 M02/M08 A3004 RMK AO2 SLP178 T10221083
Temperature: -2.2°C ( 28°F)
Dewpoint: -8.3°C ( 17°F) [RH = 63%]
Pressure (altimeter):30.04 inches Hg (1017.4 mb) [Sea level pressure: 1017.8 mb]
Winds:from the NNE (30 degrees) at 13 MPH (11 knots; 5.7 m/s)
Visibility:10 or more sm (16+ km)
Ceiling:at least 12,000 feet AGL
Clouds: few clouds at 1800 feet AGL